Time;durP1;ratioP1;P1;durP2;ratioP2;P2;SDS_P1;SDS_P2;PMS_P1;PMS_P2;Temp;Humidity;BMP_temperature;BMP_pressure;BME280_temperature;BME280_humidity;BME280_pressure;Samples;Min_cycle;Max_cycle;Signal;HPM_P1;HPM_P2
2022/10/08 00:01:25;;;;;;;39.92;5.18;;;10.60;99.90;;;;;;5035526;28;20049;-71
2022/10/08 00:03:53;;;;;;;35.17;5.40;;;11.00;99.90;;;;;;5035571;28;20053;-73
2022/10/08 00:06:24;;;;;;;35.88;5.65;;;10.60;99.90;;;;;;5040004;28;20053;-71
2022/10/08 00:08:55;;;;;;;39.78;5.68;;;10.50;99.90;;;;;;5055338;28;20494;-71
2022/10/08 00:11:28;;;;;;;43.60;5.85;;;10.50;99.90;;;;;;5055214;28;20048;-71
2022/10/08 00:13:56;;;;;;;49.88;5.97;;;10.50;99.90;;;;;;5055393;28;20382;-71
2022/10/08 00:16:26;;;;;;;50.28;6.07;;;11.50;99.90;;;;;;5054712;28;20045;-70
2022/10/08 00:19:02;;;;;;;42.92;5.88;;;10.50;99.90;;;;;;5053801;28;20051;-71
2022/10/08 00:21:33;;;;;;;43.58;5.60;;;10.50;99.90;;;;;;5054775;28;20048;-71
2022/10/08 00:24:03;;;;;;;41.03;5.75;;;10.70;99.90;;;;;;5055586;28;20045;-71
2022/10/08 00:26:32;;;;;;;52.08;6.07;;;10.90;99.90;;;;;;5054573;28;20049;-71
2022/10/08 00:29:03;;;;;;;41.40;5.53;;;10.40;99.90;;;;;;5053663;28;20045;-71
2022/10/08 00:31:32;;;;;;;41.88;6.10;;;11.30;99.90;;;;;;5055562;28;20049;-71
2022/10/08 00:34:02;;;;;;;42.35;6.05;;;10.30;99.90;;;;;;5055405;28;20048;-71
2022/10/08 00:36:31;;;;;;;39.47;5.45;;;10.30;99.90;;;;;;5054243;28;20041;-71
2022/10/08 00:39:04;;;;;;;46.78;5.78;;;10.40;99.90;;;;;;5055205;28;20452;-71
2022/10/08 00:41:36;;;;;;;45.88;5.85;;;10.30;99.90;;;;;;5053614;28;20037;-71
2022/10/08 00:44:42;;;;;;;43.63;5.47;;;10.20;99.90;;;;;;5055295;28;20036;-71
2022/10/08 00:47:32;;;;;;;35.00;5.40;;;10.20;99.90;;;;;;5052522;28;20049;-71
2022/10/08 00:50:10;;;;;;;45.47;5.72;;;10.20;99.90;;;;;;5055289;28;20048;-71
2022/10/08 00:52:47;;;;;;;45.30;5.80;;;10.20;99.90;;;;;;5054554;28;20040;-71
2022/10/08 00:55:18;;;;;;;42.67;5.20;;;10.20;99.90;;;;;;5053163;28;20041;-71
2022/10/08 00:57:46;;;;;;;55.17;5.80;;;10.20;99.90;;;;;;5055748;28;20455;-71
2022/10/08 01:00:21;;;;;;;44.22;6.15;;;11.40;99.90;;;;;;5054523;28;20045;-71
2022/10/08 01:02:48;;;;;;;46.75;5.82;;;10.10;99.90;;;;;;5053020;28;20049;-71
2022/10/08 01:05:21;;;;;;;48.00;6.68;;;10.10;99.90;;;;;;5054305;28;20341;-71
2022/10/08 01:08:10;;;;;;;47.50;6.35;;;10.10;99.90;;;;;;5052809;28;20423;-71
2022/10/08 01:10:44;;;;;;;38.50;5.85;;;10.10;99.90;;;;;;5037891;28;20040;-71
2022/10/08 01:13:18;;;;;;;41.97;5.78;;;10.90;99.90;;;;;;5054091;28;20048;-71
2022/10/08 01:15:56;;;;;;;40.80;5.43;;;10.00;99.90;;;;;;5052932;28;20064;-71
2022/10/08 01:18:54;;;;;;;48.22;5.68;;;10.80;99.90;;;;;;5055338;28;20475;-71
2022/10/08 01:21:51;;;;;;;41.97;5.90;;;9.90;99.90;;;;;;5053626;28;20056;-70
2022/10/08 01:27:41;;;;;;;45.45;5.60;;;9.80;99.90;;;;;;5054658;28;20375;-71
2022/10/08 01:30:15;;;;;;;41.95;5.93;;;9.80;99.90;;;;;;5054697;28;20353;-71
2022/10/08 01:32:50;;;;;;;44.00;5.68;;;9.70;99.90;;;;;;5054738;28;20049;-70
2022/10/08 01:35:25;;;;;;;32.13;5.25;;;9.70;99.90;;;;;;5054041;28;20048;-71
2022/10/08 01:37:56;;;;;;;35.88;4.82;;;9.70;99.90;;;;;;5054678;28;20060;-70
2022/10/08 01:40:29;;;;;;;40.75;5.50;;;9.70;99.90;;;;;;5053924;28;20041;-71
2022/10/08 01:42:59;;;;;;;45.70;5.45;;;9.70;99.90;;;;;;5053636;28;20045;-71
2022/10/08 01:45:33;;;;;;;35.15;5.30;;;10.00;99.90;;;;;;5054661;28;20049;-72
2022/10/08 01:48:05;;;;;;;37.85;5.75;;;9.70;99.90;;;;;;5053966;28;20045;-73
2022/10/08 01:50:40;;;;;;;47.20;5.30;;;9.70;99.90;;;;;;5054906;28;20041;-73
2022/10/08 01:53:12;;;;;;;35.85;4.60;;;9.70;99.90;;;;;;5054618;28;20045;-72
2022/10/08 01:55:43;;;;;;;44.40;5.68;;;9.80;99.90;;;;;;5052310;28;20071;-72
2022/10/08 01:58:17;;;;;;;40.72;5.10;;;9.60;99.90;;;;;;5054068;28;20049;-73
2022/10/08 02:00:48;;;;;;;38.45;5.10;;;9.60;99.90;;;;;;5054244;28;20053;-72
2022/10/08 02:03:16;;;;;;;27.30;4.95;;;9.60;99.90;;;;;;5053489;28;20049;-72
2022/10/08 02:05:49;;;;;;;45.65;5.47;;;10.60;99.90;;;;;;5053594;28;20451;-72
2022/10/08 02:08:17;;;;;;;38.35;5.00;;;9.50;99.90;;;;;;5053238;28;20064;-73
2022/10/08 02:10:44;;;;;;;;;;;9.70;99.90;;;;;;5054643;28;20451;-72
2022/10/08 02:13:12;;;;;;;36.70;5.28;;;9.60;99.90;;;;;;5053578;28;20296;-72
2022/10/08 02:15:47;;;;;;;41.60;5.68;;;9.60;99.90;;;;;;5053225;28;20041;-72
2022/10/08 02:18:23;;;;;;;38.63;4.40;;;9.50;99.90;;;;;;5053393;28;20072;-72
2022/10/08 02:21:02;;;;;;;37.22;5.43;;;9.40;99.90;;;;;;5053220;28;20041;-72
2022/10/08 02:23:38;;;;;;;36.63;5.00;;;9.40;99.90;;;;;;5054632;28;20045;-72
2022/10/08 02:26:13;;;;;;;34.05;4.75;;;9.30;99.90;;;;;;5054180;28;20491;-72
2022/10/08 02:28:56;;;;;;;43.15;5.38;;;9.30;99.90;;;;;;5056142;28;20063;-72
2022/10/08 02:31:45;;;;;;;34.30;5.15;;;9.20;99.90;;;;;;5057700;28;20040;-72
2022/10/08 02:34:36;;;;;;;37.35;5.05;;;9.10;99.90;;;;;;5056866;28;20052;-72
2022/10/08 02:37:18;;;;;;;48.13;5.50;;;9.90;99.90;;;;;;5057860;28;20048;-72
2022/10/08 02:39:50;;;;;;;36.83;5.35;;;9.00;99.90;;;;;;5057991;28;20054;-72
2022/10/08 02:42:21;;;;;;;45.22;5.63;;;9.00;99.90;;;;;;5056583;28;20048;-72
2022/10/08 02:45:06;;;;;;;40.95;5.40;;;10.20;99.90;;;;;;5057626;28;20471;-72
2022/10/08 02:47:37;;;;;;;35.10;5.00;;;8.90;99.90;;;;;;5056374;28;20064;-72
2022/10/08 02:50:10;;;;;;;39.58;5.18;;;8.80;99.90;;;;;;5057608;28;20045;-72
2022/10/08 02:52:41;;;;;;;39.28;5.05;;;8.80;99.90;;;;;;5057369;28;20068;-72
2022/10/08 02:55:36;;;;;;;32.42;4.75;;;8.80;99.90;;;;;;5055629;28;20060;-72
2022/10/08 02:58:08;;;;;;;46.03;5.13;;;9.30;99.90;;;;;;5056357;28;20045;-71
2022/10/08 03:00:48;;;;;;;45.50;5.05;;;8.70;99.90;;;;;;5057628;28;20049;-71
2022/10/08 03:03:24;;;;;;;38.58;4.80;;;8.70;99.90;;;;;;5056157;28;20056;-72
2022/10/08 03:05:53;;;;;;;34.08;4.72;;;8.70;99.90;;;;;;5050454;28;20053;-72
2022/10/08 03:08:20;;;;;;;38.80;4.53;;;8.70;99.90;;;;;;5036190;28;20041;-72
2022/10/08 03:10:49;;;;;;;40.42;4.93;;;10.00;99.90;;;;;;5037235;28;20045;-72
2022/10/08 03:13:17;;;;;;;38.13;5.00;;;8.60;99.90;;;;;;5019734;28;20050;-72
2022/10/08 03:15:48;;;;;;;38.15;4.75;;;8.60;99.90;;;;;;5035986;28;20046;-72
2022/10/08 03:18:17;;;;;;;40.35;4.88;;;8.50;99.90;;;;;;5037010;28;20049;-71
2022/10/08 03:20:48;;;;;;;39.95;5.03;;;8.50;99.90;;;;;;5036812;28;20038;-72
2022/10/08 03:23:17;;;;;;;34.63;4.90;;;8.60;99.90;;;;;;5018518;28;20053;-72
2022/10/08 03:25:45;;;;;;;40.75;5.28;;;10.10;99.90;;;;;;5037159;28;20049;-72
2022/10/08 03:28:12;;;;;;;32.50;4.35;;;8.60;99.90;;;;;;5035651;28;20056;-72
2022/10/08 03:30:40;;;;;;;35.40;4.32;;;8.60;99.90;;;;;;5036923;28;20046;-72
2022/10/08 03:33:07;;;;;;;37.80;4.60;;;8.60;99.90;;;;;;5036661;28;20045;-71
2022/10/08 03:35:35;;;;;;;41.45;4.70;;;9.30;99.90;;;;;;5035472;28;20045;-71
2022/10/08 03:38:02;;;;;;;30.33;3.97;;;8.50;99.90;;;;;;5036019;28;20052;-72
2022/10/08 03:40:30;;;;;;;38.35;4.50;;;8.40;99.90;;;;;;5019259;28;20368;-72
2022/10/08 03:42:57;;;;;;;40.92;4.63;;;8.40;99.90;;;;;;5035512;28;20041;-72
2022/10/08 03:45:25;;;;;;;30.63;4.40;;;8.40;99.90;;;;;;5036451;28;20041;-72
2022/10/08 03:47:52;;;;;;;28.85;4.03;;;8.30;99.90;;;;;;5018168;28;20703;-72
2022/10/08 03:50:20;;;;;;;35.22;4.38;;;8.30;99.90;;;;;;5036258;28;20060;-72
2022/10/08 03:52:48;;;;;;;;;;;8.30;99.90;;;;;;5036666;28;20057;-72
2022/10/08 03:55:16;;;;;;;33.13;3.92;;;8.20;99.90;;;;;;5035308;28;19921;-72
2022/10/08 03:57:44;;;;;;;33.13;4.30;;;8.20;99.90;;;;;;5036162;28;20052;-71
2022/10/08 04:00:12;;;;;;;38.63;4.82;;;8.10;99.90;;;;;;5036502;28;20049;-71
2022/10/08 04:02:39;;;;;;;38.08;4.45;;;8.10;99.90;;;;;;5034955;28;20042;-72
2022/10/08 04:05:07;;;;;;;35.60;4.95;;;8.10;99.90;;;;;;5019024;28;20060;-71
2022/10/08 04:07:35;;;;;;;35.45;4.35;;;8.10;99.90;;;;;;5035453;28;20052;-72
2022/10/08 04:10:02;;;;;;;40.17;5.13;;;8.10;99.90;;;;;;5035946;28;20053;-71
2022/10/08 04:12:30;;;;;;;40.33;5.03;;;8.10;99.90;;;;;;5035872;28;20049;-71
2022/10/08 04:14:57;;;;;;;33.65;4.88;;;8.10;99.90;;;;;;5035060;28;20060;-71
2022/10/08 04:17:25;;;;;;;40.55;5.13;;;8.10;99.90;;;;;;5035773;28;20050;-72
2022/10/08 04:19:52;;;;;;;47.67;5.00;;;8.10;99.90;;;;;;5035746;28;20060;-72
2022/10/08 04:22:20;;;;;;;44.70;5.65;;;8.10;99.90;;;;;;5034802;28;20045;-72
2022/10/08 04:24:47;;;;;;;41.47;4.90;;;8.10;99.90;;;;;;5036167;28;20045;-72
2022/10/08 04:27:15;;;;;;;38.90;4.75;;;8.10;99.90;;;;;;5035594;28;20048;-72
2022/10/08 04:29:42;;;;;;;37.83;4.72;;;8.20;99.90;;;;;;5034698;28;20049;-72
2022/10/08 04:32:10;;;;;;;42.60;5.10;;;8.20;99.90;;;;;;5035468;28;20049;-72
2022/10/08 04:34:37;;;;;;;35.15;5.15;;;8.20;99.90;;;;;;5034785;28;20056;-72
2022/10/08 04:37:04;;;;;;;33.60;4.97;;;8.20;99.90;;;;;;5018419;28;20353;-72
2022/10/08 04:39:32;;;;;;;46.42;5.05;;;8.60;99.90;;;;;;5018093;28;20049;-71
2022/10/08 04:42:00;;;;;;;38.42;5.20;;;8.20;99.90;;;;;;5034549;28;20438;-71
2022/10/08 04:44:27;;;;;;;30.95;4.70;;;8.20;99.90;;;;;;5035265;28;20056;-72
2022/10/08 04:46:55;;;;;;;33.85;5.05;;;8.30;99.90;;;;;;5035906;28;20049;-72
2022/10/08 04:49:24;;;;;;;35.63;4.97;;;8.40;99.90;;;;;;5034126;28;20049;-71
2022/10/08 04:51:51;;;;;;;31.13;4.65;;;9.70;99.90;;;;;;5018312;28;20042;-71
2022/10/08 04:54:19;;;;;;;46.65;5.25;;;9.40;99.90;;;;;;5034467;28;20068;-71
2022/10/08 04:56:46;;;;;;;31.00;4.93;;;8.10;99.90;;;;;;5001437;28;20049;-72
2022/10/08 04:59:14;;;;;;;40.65;4.80;;;8.00;99.90;;;;;;5035548;28;20045;-72
2022/10/08 05:01:41;;;;;;;39.28;4.80;;;8.00;99.90;;;;;;5034536;28;20057;-72
2022/10/08 05:04:09;;;;;;;28.70;4.78;;;8.00;99.90;;;;;;5018262;28;20368;-72
2022/10/08 05:06:36;;;;;;;39.40;4.93;;;8.00;99.90;;;;;;5035025;28;20049;-72
2022/10/08 05:09:04;;;;;;;29.42;4.53;;;8.00;99.90;;;;;;5033869;28;20427;-72
2022/10/08 05:11:32;;;;;;;38.00;5.15;;;8.00;99.90;;;;;;5017689;28;20064;-72
2022/10/08 05:14:00;;;;;;;32.70;5.10;;;7.90;99.90;;;;;;5018250;28;20492;-72
2022/10/08 05:16:27;;;;;;;35.78;5.03;;;9.20;99.90;;;;;;5033770;28;20060;-72
2022/10/08 05:18:55;;;;;;;29.23;4.38;;;8.10;99.90;;;;;;5034958;28;20060;-71
2022/10/08 05:21:28;;;;;;;35.00;5.00;;;9.40;99.90;;;;;;5033692;28;20057;-72
2022/10/08 05:23:56;;;;;;;35.58;4.95;;;9.30;99.90;;;;;;5034697;28;20364;-72
2022/10/08 05:26:27;;;;;;;30.40;4.57;;;9.20;99.90;;;;;;5034656;28;20037;-72
2022/10/08 05:29:15;;;;;;;41.42;4.65;;;7.80;99.90;;;;;;5033833;28;20045;-72
2022/10/08 05:31:43;;;;;;;32.47;4.78;;;9.00;99.90;;;;;;5034730;28;20487;-72
2022/10/08 05:34:12;;;;;;;30.98;4.25;;;9.70;99.90;;;;;;5034866;28;20053;-72
2022/10/08 05:36:40;;;;;;;33.28;4.55;;;9.80;99.90;;;;;;5001174;28;20049;-72
2022/10/08 05:39:09;;;;;;;38.13;4.60;;;9.80;99.90;;;;;;5035132;28;20045;-71
2022/10/08 05:41:39;;;;;;;43.72;4.80;;;7.70;99.90;;;;;;5033412;28;20053;-71
2022/10/08 05:44:08;;;;;;;26.85;3.97;;;7.70;99.90;;;;;;5034295;28;20052;-71
2022/10/08 05:46:37;;;;;;;31.55;4.13;;;7.70;99.90;;;;;;5033113;28;20045;-71
2022/10/08 05:49:07;;;;;;;40.90;4.25;;;7.70;99.90;;;;;;5016003;28;20045;-71
2022/10/08 05:51:37;;;;;;;29.73;3.80;;;7.70;99.90;;;;;;5017395;28;20368;-71
2022/10/08 05:54:04;;;;;;;37.47;4.30;;;7.90;99.90;;;;;;5034532;28;20116;-71
2022/10/08 05:56:32;;;;;;;31.10;4.15;;;7.70;99.90;;;;;;5016181;28;20061;-71
2022/10/08 05:58:59;;;;;;;32.60;4.00;;;8.00;99.90;;;;;;5034592;28;20056;-71
2022/10/08 06:01:30;;;;;;;37.97;4.10;;;7.60;99.90;;;;;;5033894;28;20046;-71
2022/10/08 06:04:00;;;;;;;25.85;4.30;;;7.70;99.90;;;;;;5038773;28;20046;-70
2022/10/08 06:06:40;;;;;;;40.03;4.03;;;7.60;99.90;;;;;;5038255;28;20045;-71
2022/10/08 06:09:11;;;;;;;35.38;4.32;;;7.60;99.90;;;;;;5037633;28;20057;-71
2022/10/08 06:11:39;;;;;;;32.25;4.10;;;7.60;99.90;;;;;;5037582;28;20053;-71
2022/10/08 06:14:10;;;;;;;34.50;4.45;;;8.30;99.90;;;;;;5038116;28;20053;-71
2022/10/08 06:16:38;;;;;;;30.38;3.95;;;7.70;99.90;;;;;;5019693;28;20053;-71
2022/10/08 06:19:06;;;;;;;36.88;4.05;;;7.70;99.90;;;;;;5020916;28;20057;-71
2022/10/08 06:21:35;;;;;;;30.35;3.90;;;7.70;99.90;;;;;;5036935;28;20053;-71
2022/10/08 06:24:05;;;;;;;33.17;3.53;;;7.70;99.90;;;;;;5038253;28;20372;-71
2022/10/08 06:26:36;;;;;;;32.75;3.80;;;7.60;99.90;;;;;;5038094;28;20060;-71
2022/10/08 06:29:11;;;;;;;22.55;3.30;;;9.20;99.90;;;;;;5037072;28;20053;-71
2022/10/08 06:31:38;;;;;;;25.15;3.85;;;9.90;99.90;;;;;;5038201;28;20052;-71
2022/10/08 06:34:06;;;;;;;30.88;3.88;;;8.00;99.90;;;;;;5038045;28;20045;-71
2022/10/08 06:36:36;;;;;;;36.53;3.78;;;9.30;99.90;;;;;;5036626;28;20053;-71
2022/10/08 06:39:06;;;;;;;28.35;3.92;;;7.50;99.90;;;;;;5004450;28;20045;-71
2022/10/08 06:41:34;;;;;;;35.10;3.92;;;7.90;99.90;;;;;;5019870;28;20050;-71
2022/10/08 06:44:05;;;;;;;32.28;3.60;;;7.60;99.90;;;;;;5037793;28;20368;-71
2022/10/08 06:46:33;;;;;;;28.25;3.80;;;7.80;99.90;;;;;;5037866;28;20041;-71
2022/10/08 06:49:02;;;;;;;29.40;3.70;;;9.50;99.90;;;;;;5019351;28;20056;-71
2022/10/08 06:51:29;;;;;;;26.67;3.30;;;7.70;99.90;;;;;;5037632;28;20065;-72
2022/10/08 06:53:58;;;;;;;25.38;3.08;;;7.70;99.90;;;;;;5019263;28;20050;-72
2022/10/08 06:56:35;;;;;;;24.48;3.08;;;7.80;99.90;;;;;;5016659;28;20042;-72
2022/10/08 06:59:04;;;;;;;32.72;3.30;;;7.80;99.90;;;;;;5017832;28;20054;-72
2022/10/08 07:01:33;;;;;;;19.85;3.08;;;9.60;99.90;;;;;;4998944;28;20049;-72
2022/10/08 07:04:02;;;;;;;26.38;3.20;;;7.80;99.90;;;;;;5000085;28;20041;-72
2022/10/08 07:06:29;;;;;;;27.77;3.42;;;7.80;99.90;;;;;;5019460;28;20053;-72
2022/10/08 07:08:59;;;;;;;24.50;3.28;;;9.80;99.90;;;;;;5035937;28;20037;-72
2022/10/08 07:11:29;;;;;;;27.77;3.20;;;7.90;99.90;;;;;;5036875;28;20049;-72
2022/10/08 07:13:56;;;;;;;19.35;3.67;;;7.90;99.90;;;;;;5035714;28;20072;-72
2022/10/08 07:16:26;;;;;;;31.45;3.70;;;7.90;99.90;;;;;;5034591;28;20133;-72
2022/10/08 07:18:55;;;;;;;31.80;3.33;;;8.00;99.90;;;;;;5035800;28;20483;-72
2022/10/08 07:21:24;;;;;;;28.02;3.25;;;9.80;99.90;;;;;;5035538;28;20390;-71
2022/10/08 07:23:51;;;;;;;19.90;2.83;;;8.10;99.90;;;;;;5036781;28;20056;-72
2022/10/08 07:26:25;;;;;;;38.05;5.60;;;9.80;99.90;;;;;;5035965;28;20045;-72
2022/10/08 07:29:04;;;;;;;23.85;2.75;;;8.30;99.90;;;;;;5034646;28;20045;-71
2022/10/08 07:31:34;;;;;;;27.40;2.67;;;8.20;99.90;;;;;;5036253;28;20363;-71
2022/10/08 07:34:05;;;;;;;25.40;3.20;;;10.10;99.90;;;;;;5036505;28;20064;-72
2022/10/08 07:36:33;;;;;;;26.35;3.05;;;9.40;99.90;;;;;;5034599;28;20388;-73
2022/10/08 07:39:06;;;;;;;21.27;3.03;;;9.70;99.90;;;;;;5036574;28;20049;-72
2022/10/08 07:41:34;;;;;;;25.23;3.05;;;8.40;99.90;;;;;;5035333;28;20049;-72
2022/10/08 07:44:03;;;;;;;22.83;2.95;;;8.40;99.90;;;;;;5037036;28;20045;-72
2022/10/08 07:46:36;;;;;;;26.42;3.03;;;10.40;99.90;;;;;;5019164;28;20041;-72
2022/10/08 07:49:04;;;;;;;24.10;3.22;;;10.00;99.90;;;;;;5035836;28;20045;-72
2022/10/08 07:51:33;;;;;;;21.48;3.00;;;8.60;99.90;;;;;;5036338;28;20045;-71
2022/10/08 07:54:03;;;;;;;24.80;2.95;;;8.70;99.90;;;;;;5036219;28;20049;-72
2022/10/08 07:56:32;;;;;;;27.45;3.17;;;10.80;99.90;;;;;;5034339;28;20064;-72
2022/10/08 07:59:00;;;;;;;24.02;2.90;;;8.70;99.90;;;;;;5036185;28;20057;-72
2022/10/08 08:01:29;;;;;;;26.02;2.90;;;10.60;99.90;;;;;;5050698;28;20046;-72
2022/10/08 08:03:59;;;;;;;22.73;3.05;;;9.50;99.90;;;;;;5036253;28;20046;-72
2022/10/08 08:06:28;;;;;;;23.83;2.50;;;8.80;99.90;;;;;;5051506;28;20053;-72
2022/10/08 08:08:55;;;;;;;17.90;2.65;;;8.90;99.90;;;;;;5035428;28;20037;-71
2022/10/08 08:11:24;;;;;;;24.95;2.80;;;9.00;99.90;;;;;;5036077;28;20049;-70
2022/10/08 08:13:51;;;;;;;;;;;9.00;99.90;;;;;;5052045;28;20369;-71
2022/10/08 08:16:24;;;;;;;26.77;3.10;;;9.10;99.90;;;;;;5034896;28;19921;-70
2022/10/08 08:18:54;;;;;;;19.80;2.97;;;9.90;99.90;;;;;;5035876;28;20326;-71
2022/10/08 08:21:30;;;;;;;25.80;3.22;;;9.10;99.90;;;;;;5034659;28;20052;-71
2022/10/08 08:24:04;;;;;;;21.35;2.60;;;11.30;99.90;;;;;;5035649;28;20049;-70
2022/10/08 08:26:34;;;;;;;23.63;2.85;;;9.30;99.90;;;;;;5036094;28;20049;-71
2022/10/08 08:29:05;;;;;;;19.92;2.80;;;9.30;99.90;;;;;;5034630;28;20045;-71
2022/10/08 08:31:35;;;;;;;22.00;2.70;;;9.30;99.90;;;;;;5034575;28;20076;-71
2022/10/08 08:34:09;;;;;;;21.95;2.83;;;9.40;99.90;;;;;;5034944;28;20048;-70
2022/10/08 08:36:39;;;;;;;21.73;3.78;;;9.50;99.90;;;;;;5034286;28;20050;-70
2022/10/08 08:39:12;;;;;;;27.35;3.38;;;11.20;99.90;;;;;;5051015;28;20041;-69
2022/10/08 08:41:46;;;;;;;24.67;2.75;;;9.60;99.90;;;;;;5034247;28;20052;-69
2022/10/08 08:44:20;;;;;;;19.17;3.03;;;10.90;99.90;;;;;;5035191;28;20053;-70
2022/10/08 08:47:04;;;;;;;22.20;2.67;;;9.70;99.90;;;;;;5035776;28;20052;-70
2022/10/08 08:49:40;;;;;;;24.70;2.80;;;9.70;99.90;;;;;;5045570;28;20040;-72
2022/10/08 08:52:11;;;;;;;20.15;2.80;;;9.80;99.90;;;;;;5059276;28;20056;-72
2022/10/08 08:54:38;;;;;;;25.77;2.80;;;9.90;99.90;;;;;;5052121;28;20042;-72
2022/10/08 08:57:47;;;;;;;24.00;3.00;;;10.10;99.90;;;;;;5035115;28;20049;-72
2022/10/08 09:00:21;;;;;;;16.90;2.65;;;10.00;99.90;;;;;;5021143;28;20061;-70
2022/10/08 09:03:04;;;;;;;19.75;2.72;;;10.00;99.90;;;;;;5044316;28;20038;-70
2022/10/08 09:05:37;;;;;;;19.98;2.40;;;10.00;99.90;;;;;;5039631;28;20045;-70
2022/10/08 09:08:17;;;;;;;19.13;3.05;;;10.10;99.90;;;;;;5028101;28;20064;-73
2022/10/08 09:10:52;;;;;;;20.50;2.70;;;10.10;99.90;;;;;;5035139;28;20038;-73
2022/10/08 09:13:44;;;;;;;19.27;2.50;;;11.10;99.90;;;;;;5016824;28;20045;-73
2022/10/08 09:16:15;;;;;;;23.80;2.88;;;11.10;99.90;;;;;;5016133;28;20353;-73
2022/10/08 09:18:49;;;;;;;26.20;2.60;;;10.70;99.90;;;;;;5034103;28;20045;-73
2022/10/08 09:21:17;;;;;;;20.70;2.70;;;10.30;99.90;;;;;;5016499;28;20052;-73
2022/10/08 09:23:45;;;;;;;20.15;2.33;;;10.30;99.90;;;;;;5034893;28;20044;-73
2022/10/08 09:26:20;;;;;;;74.68;6.03;;;10.50;99.90;;;;;;5017253;28;20049;-74
2022/10/08 09:28:56;;;;;;;18.70;2.80;;;10.50;99.90;;;;;;5016799;28;20113;-73
2022/10/08 09:31:39;;;;;;;18.55;2.40;;;10.50;99.90;;;;;;5034585;28;20041;-73
2022/10/08 09:34:09;;;;;;;19.10;2.50;;;10.50;99.90;;;;;;5034628;28;20052;-73
2022/10/08 09:36:59;;;;;;;26.55;7.57;;;10.60;99.90;;;;;;5015535;28;20053;-73
2022/10/08 09:39:32;;;;;;;20.52;2.75;;;10.60;99.90;;;;;;5034831;28;20507;-73
2022/10/08 09:42:06;;;;;;;18.73;2.75;;;10.70;99.90;;;;;;5016154;28;20045;-73
2022/10/08 09:44:55;;;;;;;40.25;4.15;;;10.70;99.90;;;;;;5034522;28;20049;-73
2022/10/08 09:47:24;;;;;;;17.65;2.50;;;10.90;99.90;;;;;;5034771;28;20068;-73
2022/10/08 09:50:14;;;;;;;19.48;2.50;;;10.80;99.90;;;;;;5016656;28;20060;-73
2022/10/08 09:52:42;;;;;;;24.33;2.55;;;10.90;99.90;;;;;;5017355;28;20372;-73
2022/10/08 09:55:15;;;;;;;19.42;3.00;;;11.00;99.90;;;;;;5033668;28;20042;-73
2022/10/08 09:57:52;;;;;;;18.02;2.90;;;11.00;99.90;;;;;;5018199;28;20049;-73
2022/10/08 10:00:27;;;;;;;20.13;2.55;;;11.10;99.90;;;;;;5034570;28;20499;-73
2022/10/08 10:02:56;;;;;;;18.08;2.95;;;11.10;99.90;;;;;;5033657;28;20356;-73
2022/10/08 10:05:32;;;;;;;13.85;2.45;;;11.10;99.90;;;;;;5033773;28;20041;-73
2022/10/08 10:08:02;;;;;;;;;;;11.10;99.90;;;;;;5033448;28;20048;-73
2022/10/08 10:10:41;;;;;;;17.08;2.78;;;11.20;99.90;;;;;;5034173;28;19921;-73
2022/10/08 10:13:19;;;;;;;17.20;2.47;;;11.20;99.90;;;;;;5034106;28;20068;-72
2022/10/08 10:15:55;;;;;;;17.77;2.90;;;11.30;99.90;;;;;;5032898;28;20061;-73
2022/10/08 10:18:31;;;;;;;14.65;2.63;;;11.30;99.90;;;;;;5016781;28;20056;-73
2022/10/08 10:21:04;;;;;;;18.88;2.72;;;11.40;99.90;;;;;;5032861;28;20049;-73
2022/10/08 10:23:37;;;;;;;24.33;3.17;;;11.40;99.90;;;;;;5034031;28;20056;-73
2022/10/08 10:26:17;;;;;;;17.33;2.45;;;11.50;99.90;;;;;;5016662;28;20387;-73
2022/10/08 10:28:58;;;;;;;24.67;3.08;;;11.50;99.90;;;;;;5032870;28;20054;-73
2022/10/08 10:31:44;;;;;;;21.17;3.05;;;11.60;99.90;;;;;;5033923;28;20058;-73
2022/10/08 10:34:27;;;;;;;19.88;2.33;;;11.60;99.90;;;;;;5033923;28;20045;-73
2022/10/08 10:36:57;;;;;;;18.70;2.40;;;11.70;99.90;;;;;;5033820;28;20041;-73
2022/10/08 10:39:40;;;;;;;18.83;2.38;;;11.70;99.90;;;;;;5033901;28;20042;-73
2022/10/08 10:42:38;;;;;;;14.68;2.47;;;11.80;99.90;;;;;;5032392;28;20041;-73
2022/10/08 10:45:22;;;;;;;15.80;2.53;;;11.90;99.90;;;;;;5033817;28;20465;-73
2022/10/08 10:47:50;;;;;;;18.17;2.40;;;12.00;99.90;;;;;;5000271;28;20045;-73
2022/10/08 10:50:47;;;;;;;18.35;2.70;;;12.00;99.90;;;;;;5037298;28;20049;-73
2022/10/08 10:53:27;;;;;;;17.17;2.58;;;12.10;99.90;;;;;;5037134;28;20372;-73
2022/10/08 10:56:17;;;;;;;16.50;2.70;;;12.10;99.90;;;;;;5018848;28;20045;-72
2022/10/08 10:59:03;;;;;;;19.08;2.65;;;12.20;99.90;;;;;;5037181;28;20045;-72
2022/10/08 11:02:08;;;;;;;20.02;2.70;;;12.30;99.90;;;;;;5035921;28;20057;-73
2022/10/08 11:04:49;;;;;;;15.88;2.22;;;12.30;99.90;;;;;;5033513;28;20725;-72
2022/10/08 11:07:32;;;;;;;18.30;2.85;;;12.30;99.90;;;;;;5035529;28;20054;-72
2022/10/08 11:10:15;;;;;;;16.02;2.40;;;12.40;99.90;;;;;;5036876;28;20056;-71
2022/10/08 11:12:58;;;;;;;17.98;2.75;;;12.50;99.90;;;;;;5036757;28;20042;-71
2022/10/08 11:15:34;;;;;;;17.27;2.53;;;12.50;99.90;;;;;;5018491;28;20064;-71
2022/10/08 11:18:02;;;;;;;14.07;2.50;;;12.60;99.90;;;;;;5036109;28;20037;-71
2022/10/08 11:20:47;;;;;;;17.83;2.40;;;12.70;99.90;;;;;;5036562;28;20483;-71
2022/10/08 11:23:41;;;;;;;14.95;2.50;;;12.80;99.90;;;;;;5020422;28;20353;-71
2022/10/08 11:26:24;;;;;;;14.55;2.22;;;12.90;99.90;;;;;;5035610;28;20045;-73
2022/10/08 11:29:13;;;;;;;11.75;2.15;;;13.00;99.90;;;;;;5018205;28;20045;-73
2022/10/08 11:31:41;;;;;;;12.02;2.33;;;12.90;99.90;;;;;;5019399;28;20049;-72
2022/10/08 11:34:28;;;;;;;12.77;2.25;;;13.10;99.90;;;;;;5036585;28;20053;-72
2022/10/08 11:37:04;;;;;;;16.60;2.53;;;13.20;99.90;;;;;;5036223;28;20061;-71
2022/10/08 11:39:51;;;;;;;15.38;2.25;;;13.20;99.90;;;;;;5036346;28;20045;-72
2022/10/08 11:42:28;;;;;;;19.98;2.80;;;13.20;99.90;;;;;;5017902;28;20049;-72
2022/10/08 11:45:28;;;;;;;13.10;2.25;;;13.10;99.90;;;;;;5036236;28;20042;-72
2022/10/08 11:47:58;;;;;;;12.07;2.22;;;13.10;99.90;;;;;;5017852;28;20380;-73
2022/10/08 11:50:31;;;;;;;17.52;2.58;;;13.20;99.90;;;;;;5018854;28;20046;-72
2022/10/08 11:53:08;;;;;;;20.35;2.70;;;13.30;99.90;;;;;;5018989;28;20095;-72
2022/10/08 11:55:46;;;;;;;18.45;2.40;;;13.50;99.90;;;;;;5034803;28;20049;-72
2022/10/08 11:58:29;;;;;;;17.33;2.67;;;13.60;99.90;;;;;;5036123;28;20045;-71
2022/10/08 12:01:05;;;;;;;13.82;2.40;;;13.70;99.90;;;;;;5000823;28;20377;-72
2022/10/08 12:03:38;;;;;;;15.93;2.53;;;13.80;99.90;;;;;;5036204;28;20048;-72
2022/10/08 12:06:28;;;;;;;14.25;2.42;;;13.90;99.90;;;;;;5035543;28;20377;-72
2022/10/08 12:09:02;;;;;;;12.75;2.22;;;14.00;99.90;;;;;;5034717;28;20082;-72
2022/10/08 12:11:38;;;;;;;12.60;2.33;;;14.20;99.90;;;;;;5035538;28;20041;-72
2022/10/08 12:14:11;;;;;;;14.30;2.58;;;14.30;99.90;;;;;;5035451;28;20053;-71
2022/10/08 12:16:47;;;;;;;7.68;1.92;;;14.30;99.90;;;;;;5034720;28;20053;-71
2022/10/08 12:19:35;;;;;;;12.73;2.03;;;14.40;99.90;;;;;;5035544;28;20050;-71
2022/10/08 12:22:15;;;;;;;12.48;2.28;;;14.40;99.50;;;;;;5034811;28;20056;-71
2022/10/08 12:24:43;;;;;;;11.20;2.13;;;14.40;99.30;;;;;;5018392;28;20037;-71
2022/10/08 12:27:16;;;;;;;12.25;2.20;;;14.40;99.20;;;;;;5035787;28;20061;-71
2022/10/08 12:30:01;;;;;;;11.82;2.33;;;14.50;98.90;;;;;;5034539;28;20056;-71
2022/10/08 12:32:49;;;;;;;14.68;2.50;;;14.50;97.90;;;;;;5035569;28;20059;-72
2022/10/08 12:35:23;;;;;;;11.73;2.33;;;14.50;97.80;;;;;;5019150;28;20057;-71
2022/10/08 12:37:51;;;;;;;13.63;2.53;;;14.60;97.60;;;;;;5017423;28;20056;-72
2022/10/08 12:40:21;;;;;;;10.50;1.70;;;14.60;96.90;;;;;;5035207;28;20045;-72
2022/10/08 12:42:57;;;;;;;9.63;1.92;;;14.70;96.30;;;;;;5016743;28;20053;-72
2022/10/08 12:45:33;;;;;;;11.85;2.00;;;14.70;96.00;;;;;;5035374;28;20364;-72
2022/10/08 12:48:10;;;;;;;14.00;1.98;;;14.70;95.90;;;;;;5034171;28;20041;-72
2022/10/08 12:50:52;;;;;;;11.95;1.98;;;14.70;95.80;;;;;;5001933;28;20045;-72
2022/10/08 12:53:21;;;;;;;11.88;2.25;;;14.70;95.80;;;;;;5035195;28;20065;-72
2022/10/08 12:55:57;;;;;;;6.43;1.92;;;14.70;95.40;;;;;;5034086;28;20052;-72
2022/10/08 12:58:34;;;;;;;10.20;1.73;;;14.80;95.00;;;;;;5034405;28;20064;-72
2022/10/08 13:01:03;;;;;;;10.18;2.22;;;14.80;94.90;;;;;;5016938;28;20471;-72
2022/10/08 13:03:31;;;;;;;12.20;2.47;;;14.80;94.20;;;;;;5035092;28;20042;-72
2022/10/08 13:06:15;;;;;;;13.63;2.13;;;14.80;94.20;;;;;;5034930;28;20041;-72
2022/10/08 13:08:43;;;;;;;10.13;2.30;;;14.90;93.10;;;;;;5033749;28;20475;-72
2022/10/08 13:11:13;;;;;;;8.57;1.90;;;15.00;92.70;;;;;;5033599;28;20053;-72
2022/10/08 13:13:48;;;;;;;10.07;2.00;;;15.00;92.90;;;;;;5033228;28;20468;-72
2022/10/08 13:16:24;;;;;;;11.50;2.20;;;15.00;92.60;;;;;;5033766;28;20052;-72
2022/10/08 13:18:57;;;;;;;13.30;2.03;;;15.00;92.50;;;;;;5034696;28;20495;-72